sensor_id;sensor_type;location;lat;lon;timestamp;P1;durP1;ratioP1;P2;durP2;ratioP2
40847;SDS011;26570;50.962;5.340;2023-03-13T01:04:28;17.83;;;1.00;;
40847;SDS011;26570;50.962;5.340;2023-03-13T01:07:13;15.70;;;1.07;;
40847;SDS011;26570;50.962;5.340;2023-03-13T01:09:58;16.53;;;0.80;;
40847;SDS011;26570;50.962;5.340;2023-03-13T01:12:44;13.03;;;0.83;;
40847;SDS011;26570;50.962;5.340;2023-03-13T01:15:30;14.17;;;0.70;;
40847;SDS011;26570;50.962;5.340;2023-03-13T01:18:18;16.00;;;0.83;;
40847;SDS011;26570;50.962;5.340;2023-03-13T01:21:03;11.60;;;1.07;;
40847;SDS011;26570;50.962;5.340;2023-03-13T01:23:54;17.40;;;1.17;;
40847;SDS011;26570;50.962;5.340;2023-03-13T01:26:45;13.60;;;1.00;;
40847;SDS011;26570;50.962;5.340;2023-03-13T01:29:53;12.23;;;0.70;;
40847;SDS011;26570;50.962;5.340;2023-03-13T01:33:01;11.90;;;0.70;;
40847;SDS011;26570;50.962;5.340;2023-03-13T01:35:46;9.93;;;0.77;;
40847;SDS011;26570;50.962;5.340;2023-03-13T01:38:32;10.97;;;0.97;;
40847;SDS011;26570;50.962;5.340;2023-03-13T01:41:20;12.10;;;0.67;;
40847;SDS011;26570;50.962;5.340;2023-03-13T01:44:46;9.43;;;0.50;;
40847;SDS011;26570;50.962;5.340;2023-03-13T01:47:39;9.53;;;0.60;;
40847;SDS011;26570;50.962;5.340;2023-03-13T01:50:25;9.33;;;0.67;;
40847;SDS011;26570;50.962;5.340;2023-03-13T01:53:10;8.67;;;0.70;;
40847;SDS011;26570;50.962;5.340;2023-03-13T01:55:56;9.90;;;0.70;;
40847;SDS011;26570;50.962;5.340;2023-03-13T01:58:43;4.80;;;0.90;;
40847;SDS011;26570;50.962;5.340;2023-03-13T02:01:28;3.50;;;0.60;;
40847;SDS011;26570;50.962;5.340;2023-03-13T02:04:14;8.37;;;0.70;;
40847;SDS011;26570;50.962;5.340;2023-03-13T02:07:30;4.87;;;0.90;;
40847;SDS011;26570;50.962;5.340;2023-03-13T02:10:20;3.43;;;0.90;;
40847;SDS011;26570;50.962;5.340;2023-03-13T02:13:08;4.63;;;1.20;;
40847;SDS011;26570;50.962;5.340;2023-03-13T02:15:58;4.90;;;0.90;;
40847;SDS011;26570;50.962;5.340;2023-03-13T02:18:44;3.10;;;0.90;;
40847;SDS011;26570;50.962;5.340;2023-03-13T02:22:05;4.13;;;1.20;;
40847;SDS011;26570;50.962;5.340;2023-03-13T02:25:06;4.33;;;1.53;;
40847;SDS011;26570;50.962;5.340;2023-03-13T02:28:28;3.67;;;1.27;;
40847;SDS011;26570;50.962;5.340;2023-03-13T02:31:17;4.80;;;1.33;;
40847;SDS011;26570;50.962;5.340;2023-03-13T02:34:02;5.87;;;2.40;;
40847;SDS011;26570;50.962;5.340;2023-03-13T02:36:48;4.53;;;1.60;;
40847;SDS011;26570;50.962;5.340;2023-03-13T02:39:34;9.90;;;2.00;;
40847;SDS011;26570;50.962;5.340;2023-03-13T02:42:22;4.20;;;1.80;;
40847;SDS011;26570;50.962;5.340;2023-03-13T02:45:15;5.43;;;1.97;;
40847;SDS011;26570;50.962;5.340;2023-03-13T02:48:01;3.93;;;1.83;;
40847;SDS011;26570;50.962;5.340;2023-03-13T02:52:03;5.17;;;2.27;;
40847;SDS011;26570;50.962;5.340;2023-03-13T02:54:27;3.43;;;2.17;;
40847;SDS011;26570;50.962;5.340;2023-03-13T02:57:25;8.63;;;2.60;;
40847;SDS011;26570;50.962;5.340;2023-03-13T03:00:16;5.63;;;2.30;;
40847;SDS011;26570;50.962;5.340;2023-03-13T03:03:02;4.13;;;1.90;;
40847;SDS011;26570;50.962;5.340;2023-03-13T03:05:47;9.87;;;2.40;;
40847;SDS011;26570;50.962;5.340;2023-03-13T03:08:33;3.87;;;1.53;;
40847;SDS011;26570;50.962;5.340;2023-03-13T03:11:24;4.40;;;1.70;;
40847;SDS011;26570;50.962;5.340;2023-03-13T03:14:09;3.90;;;1.90;;
40847;SDS011;26570;50.962;5.340;2023-03-13T03:17:20;4.87;;;1.73;;
40847;SDS011;26570;50.962;5.340;2023-03-13T03:20:31;5.23;;;1.97;;
40847;SDS011;26570;50.962;5.340;2023-03-13T03:23:17;3.33;;;1.93;;
40847;SDS011;26570;50.962;5.340;2023-03-13T03:26:02;5.00;;;1.57;;
40847;SDS011;26570;50.962;5.340;2023-03-13T03:29:11;3.97;;;1.50;;
40847;SDS011;26570;50.962;5.340;2023-03-13T03:31:59;2.97;;;1.40;;
40847;SDS011;26570;50.962;5.340;2023-03-13T03:34:45;3.53;;;2.50;;
40847;SDS011;26570;50.962;5.340;2023-03-13T03:37:30;5.00;;;1.90;;
40847;SDS011;26570;50.962;5.340;2023-03-13T03:40:18;6.87;;;2.53;;
40847;SDS011;26570;50.962;5.340;2023-03-13T03:43:04;5.97;;;2.60;;
40847;SDS011;26570;50.962;5.340;2023-03-13T03:45:50;3.63;;;3.03;;
40847;SDS011;26570;50.962;5.340;2023-03-13T03:49:03;3.30;;;2.40;;
40847;SDS011;26570;50.962;5.340;2023-03-13T03:51:48;6.60;;;2.20;;
40847;SDS011;26570;50.962;5.340;2023-03-13T03:54:44;3.20;;;2.90;;
40847;SDS011;26570;50.962;5.340;2023-03-13T03:57:29;4.20;;;2.47;;
40847;SDS011;26570;50.962;5.340;2023-03-13T04:00:37;5.93;;;2.37;;
40847;SDS011;26570;50.962;5.340;2023-03-13T04:03:24;3.60;;;1.60;;
40847;SDS011;26570;50.962;5.340;2023-03-13T04:06:16;3.50;;;1.63;;
40847;SDS011;26570;50.962;5.340;2023-03-13T04:09:10;4.00;;;1.57;;
40847;SDS011;26570;50.962;5.340;2023-03-13T04:12:18;5.27;;;1.50;;
40847;SDS011;26570;50.962;5.340;2023-03-13T04:15:03;4.03;;;1.10;;
40847;SDS011;26570;50.962;5.340;2023-03-13T04:17:49;6.27;;;2.53;;
40847;SDS011;26570;50.962;5.340;2023-03-13T04:20:39;3.17;;;1.60;;
40847;SDS011;26570;50.962;5.340;2023-03-13T04:23:25;2.50;;;1.20;;
40847;SDS011;26570;50.962;5.340;2023-03-13T04:26:34;2.50;;;1.13;;
40847;SDS011;26570;50.962;5.340;2023-03-13T04:29:42;4.20;;;0.97;;
40847;SDS011;26570;50.962;5.340;2023-03-13T04:32:27;3.17;;;0.90;;
40847;SDS011;26570;50.962;5.340;2023-03-13T04:35:12;3.40;;;0.90;;
40847;SDS011;26570;50.962;5.340;2023-03-13T04:37:58;4.70;;;0.80;;
40847;SDS011;26570;50.962;5.340;2023-03-13T04:41:08;2.67;;;0.90;;
40847;SDS011;26570;50.962;5.340;2023-03-13T04:43:56;4.10;;;0.80;;
40847;SDS011;26570;50.962;5.340;2023-03-13T04:46:49;4.00;;;0.87;;
40847;SDS011;26570;50.962;5.340;2023-03-13T04:49:35;5.10;;;0.90;;
40847;SDS011;26570;50.962;5.340;2023-03-13T04:52:20;4.97;;;0.90;;
40847;SDS011;26570;50.962;5.340;2023-03-13T04:55:06;3.97;;;1.00;;
40847;SDS011;26570;50.962;5.340;2023-03-13T04:57:51;2.00;;;0.70;;
40847;SDS011;26570;50.962;5.340;2023-03-13T05:00:38;2.80;;;0.70;;
40847;SDS011;26570;50.962;5.340;2023-03-13T05:03:24;2.73;;;0.80;;
40847;SDS011;26570;50.962;5.340;2023-03-13T05:06:32;4.63;;;0.73;;
40847;SDS011;26570;50.962;5.340;2023-03-13T05:09:18;2.80;;;0.70;;
40847;SDS011;26570;50.962;5.340;2023-03-13T05:12:07;2.97;;;0.70;;
40847;SDS011;26570;50.962;5.340;2023-03-13T05:14:52;2.77;;;0.60;;
40847;SDS011;26570;50.962;5.340;2023-03-13T05:18:00;4.43;;;0.83;;
40847;SDS011;26570;50.962;5.340;2023-03-13T05:20:45;3.80;;;0.60;;
40847;SDS011;26570;50.962;5.340;2023-03-13T05:23:30;4.50;;;0.73;;
40847;SDS011;26570;50.962;5.340;2023-03-13T05:26:16;4.43;;;0.80;;
40847;SDS011;26570;50.962;5.340;2023-03-13T05:29:01;2.23;;;0.73;;
40847;SDS011;26570;50.962;5.340;2023-03-13T05:32:12;4.00;;;1.00;;
40847;SDS011;26570;50.962;5.340;2023-03-13T05:35:19;1.80;;;0.50;;
40847;SDS011;26570;50.962;5.340;2023-03-13T05:38:05;5.90;;;1.30;;
40847;SDS011;26570;50.962;5.340;2023-03-13T05:41:13;2.60;;;0.60;;
40847;SDS011;26570;50.962;5.340;2023-03-13T05:44:00;4.00;;;0.60;;
40847;SDS011;26570;50.962;5.340;2023-03-13T05:46:45;2.73;;;0.60;;
40847;SDS011;26570;50.962;5.340;2023-03-13T05:49:32;3.20;;;0.93;;
40847;SDS011;26570;50.962;5.340;2023-03-13T05:52:17;4.50;;;0.70;;
40847;SDS011;26570;50.962;5.340;2023-03-13T05:55:03;7.53;;;0.60;;
40847;SDS011;26570;50.962;5.340;2023-03-13T05:57:48;4.53;;;0.60;;
40847;SDS011;26570;50.962;5.340;2023-03-13T06:01:07;6.43;;;1.07;;
40847;SDS011;26570;50.962;5.340;2023-03-13T06:04:16;3.27;;;0.63;;
40847;SDS011;26570;50.962;5.340;2023-03-13T06:07:01;5.43;;;0.70;;
40847;SDS011;26570;50.962;5.340;2023-03-13T06:09:46;4.90;;;0.60;;
40847;SDS011;26570;50.962;5.340;2023-03-13T06:12:32;4.70;;;0.60;;
40847;SDS011;26570;50.962;5.340;2023-03-13T06:15:17;6.07;;;0.57;;
40847;SDS011;26570;50.962;5.340;2023-03-13T06:18:03;5.30;;;1.03;;
40847;SDS011;26570;50.962;5.340;2023-03-13T06:20:48;6.50;;;0.60;;
40847;SDS011;26570;50.962;5.340;2023-03-13T06:23:39;5.97;;;0.60;;
40847;SDS011;26570;50.962;5.340;2023-03-13T06:26:25;5.53;;;0.70;;
40847;SDS011;26570;50.962;5.340;2023-03-13T06:29:10;7.70;;;1.23;;
40847;SDS011;26570;50.962;5.340;2023-03-13T06:31:56;3.57;;;0.60;;
40847;SDS011;26570;50.962;5.340;2023-03-13T06:34:41;4.57;;;0.60;;
40847;SDS011;26570;50.962;5.340;2023-03-13T06:37:26;5.73;;;0.63;;
40847;SDS011;26570;50.962;5.340;2023-03-13T06:40:12;6.93;;;0.70;;
40847;SDS011;26570;50.962;5.340;2023-03-13T06:42:57;5.03;;;1.13;;
40847;SDS011;26570;50.962;5.340;2023-03-13T06:45:42;4.23;;;0.70;;
40847;SDS011;26570;50.962;5.340;2023-03-13T06:48:27;4.20;;;0.60;;
40847;SDS011;26570;50.962;5.340;2023-03-13T06:51:13;5.00;;;0.60;;
40847;SDS011;26570;50.962;5.340;2023-03-13T06:54:03;7.80;;;0.70;;
40847;SDS011;26570;50.962;5.340;2023-03-13T06:56:48;6.23;;;0.73;;
40847;SDS011;26570;50.962;5.340;2023-03-13T06:59:36;4.80;;;0.50;;
40847;SDS011;26570;50.962;5.340;2023-03-13T07:02:24;6.60;;;0.73;;
40847;SDS011;26570;50.962;5.340;2023-03-13T07:05:09;8.73;;;1.10;;
40847;SDS011;26570;50.962;5.340;2023-03-13T07:07:55;7.77;;;0.67;;
40847;SDS011;26570;50.962;5.340;2023-03-13T07:10:41;11.13;;;0.80;;
40847;SDS011;26570;50.962;5.340;2023-03-13T07:13:27;4.90;;;0.60;;
40847;SDS011;26570;50.962;5.340;2023-03-13T07:16:12;6.20;;;0.70;;
40847;SDS011;26570;50.962;5.340;2023-03-13T07:18:57;9.33;;;0.60;;
40847;SDS011;26570;50.962;5.340;2023-03-13T07:21:42;9.37;;;1.27;;
40847;SDS011;26570;50.962;5.340;2023-03-13T07:24:51;9.30;;;0.70;;
40847;SDS011;26570;50.962;5.340;2023-03-13T07:27:39;7.70;;;0.70;;
40847;SDS011;26570;50.962;5.340;2023-03-13T07:30:24;11.77;;;0.80;;
40847;SDS011;26570;50.962;5.340;2023-03-13T07:33:10;5.27;;;0.70;;
40847;SDS011;26570;50.962;5.340;2023-03-13T07:35:55;3.90;;;0.73;;
40847;SDS011;26570;50.962;5.340;2023-03-13T07:39:03;6.83;;;0.70;;
40847;SDS011;26570;50.962;5.340;2023-03-13T07:41:49;4.17;;;0.70;;
40847;SDS011;26570;50.962;5.340;2023-03-13T07:44:34;3.73;;;0.70;;
40847;SDS011;26570;50.962;5.340;2023-03-13T07:47:19;8.03;;;0.60;;
40847;SDS011;26570;50.962;5.340;2023-03-13T07:50:05;5.50;;;0.70;;
40847;SDS011;26570;50.962;5.340;2023-03-13T07:52:51;8.30;;;0.70;;
40847;SDS011;26570;50.962;5.340;2023-03-13T07:55:39;8.70;;;1.00;;
40847;SDS011;26570;50.962;5.340;2023-03-13T08:02:10;4.20;;;0.50;;
40847;SDS011;26570;50.962;5.340;2023-03-13T08:04:57;7.93;;;1.00;;
40847;SDS011;26570;50.962;5.340;2023-03-13T08:07:43;6.27;;;0.60;;
40847;SDS011;26570;50.962;5.340;2023-03-13T08:10:29;5.30;;;0.60;;
40847;SDS011;26570;50.962;5.340;2023-03-13T08:13:14;4.23;;;0.50;;
40847;SDS011;26570;50.962;5.340;2023-03-13T08:16:23;6.60;;;0.53;;
40847;SDS011;26570;50.962;5.340;2023-03-13T08:19:12;8.17;;;0.57;;
40847;SDS011;26570;50.962;5.340;2023-03-13T08:21:57;7.00;;;0.67;;
40847;SDS011;26570;50.962;5.340;2023-03-13T08:24:43;6.03;;;0.87;;
40847;SDS011;26570;50.962;5.340;2023-03-13T08:27:29;7.53;;;0.60;;
40847;SDS011;26570;50.962;5.340;2023-03-13T08:30:15;6.53;;;0.50;;
40847;SDS011;26570;50.962;5.340;2023-03-13T08:32:59;5.87;;;0.60;;
40847;SDS011;26570;50.962;5.340;2023-03-13T08:35:45;7.83;;;0.80;;
40847;SDS011;26570;50.962;5.340;2023-03-13T08:38:31;5.37;;;0.67;;
40847;SDS011;26570;50.962;5.340;2023-03-13T08:41:20;7.40;;;0.97;;
40847;SDS011;26570;50.962;5.340;2023-03-13T08:44:07;5.63;;;0.80;;
40847;SDS011;26570;50.962;5.340;2023-03-13T08:46:55;6.60;;;0.50;;
40847;SDS011;26570;50.962;5.340;2023-03-13T08:49:43;5.27;;;0.60;;
40847;SDS011;26570;50.962;5.340;2023-03-13T08:52:28;5.13;;;0.60;;
40847;SDS011;26570;50.962;5.340;2023-03-13T08:55:36;4.27;;;0.67;;
40847;SDS011;26570;50.962;5.340;2023-03-13T08:58:21;6.63;;;0.67;;
40847;SDS011;26570;50.962;5.340;2023-03-13T09:01:07;2.20;;;0.40;;
40847;SDS011;26570;50.962;5.340;2023-03-13T09:03:53;7.20;;;0.70;;
40847;SDS011;26570;50.962;5.340;2023-03-13T09:06:38;6.43;;;0.50;;
40847;SDS011;26570;50.962;5.340;2023-03-13T09:09:24;5.13;;;0.47;;
40847;SDS011;26570;50.962;5.340;2023-03-13T09:12:09;2.67;;;0.50;;
40847;SDS011;26570;50.962;5.340;2023-03-13T09:14:55;4.73;;;0.60;;
40847;SDS011;26570;50.962;5.340;2023-03-13T09:17:41;8.33;;;0.50;;
40847;SDS011;26570;50.962;5.340;2023-03-13T09:20:51;6.60;;;0.53;;
40847;SDS011;26570;50.962;5.340;2023-03-13T09:23:36;4.17;;;0.50;;
40847;SDS011;26570;50.962;5.340;2023-03-13T09:26:22;4.20;;;0.50;;
40847;SDS011;26570;50.962;5.340;2023-03-13T09:29:08;4.80;;;0.50;;
40847;SDS011;26570;50.962;5.340;2023-03-13T09:32:16;5.10;;;0.50;;
40847;SDS011;26570;50.962;5.340;2023-03-13T09:35:03;2.00;;;0.40;;
40847;SDS011;26570;50.962;5.340;2023-03-13T09:38:12;6.83;;;0.60;;
40847;SDS011;26570;50.962;5.340;2023-03-13T09:41:00;1.17;;;0.40;;
40847;SDS011;26570;50.962;5.340;2023-03-13T09:43:57;4.23;;;0.40;;
40847;SDS011;26570;50.962;5.340;2023-03-13T09:50:11;3.53;;;0.40;;
40847;SDS011;26570;50.962;5.340;2023-03-13T09:53:13;2.40;;;0.40;;
40847;SDS011;26570;50.962;5.340;2023-03-13T09:56:04;1.85;;;0.40;;
40847;SDS011;26570;50.962;5.340;2023-03-13T09:59:36;4.43;;;0.40;;
40847;SDS011;26570;50.962;5.340;2023-03-13T10:02:13;4.05;;;0.40;;
40847;SDS011;26570;50.962;5.340;2023-03-13T10:05:23;2.03;;;0.40;;
40847;SDS011;26570;50.962;5.340;2023-03-13T10:11:28;1.33;;;0.40;;
40847;SDS011;26570;50.962;5.340;2023-03-13T10:14:19;1.87;;;0.30;;
40847;SDS011;26570;50.962;5.340;2023-03-13T10:17:35;3.27;;;0.50;;
40847;SDS011;26570;50.962;5.340;2023-03-13T10:20:25;2.07;;;0.30;;
40847;SDS011;26570;50.962;5.340;2023-03-13T10:23:23;2.30;;;0.20;;
40847;SDS011;26570;50.962;5.340;2023-03-13T10:26:35;2.00;;;0.30;;
40847;SDS011;26570;50.962;5.340;2023-03-13T10:29:25;3.00;;;0.40;;
40847;SDS011;26570;50.962;5.340;2023-03-13T10:32:15;1.63;;;0.30;;
40847;SDS011;26570;50.962;5.340;2023-03-13T10:35:02;1.90;;;0.30;;
40847;SDS011;26570;50.962;5.340;2023-03-13T10:37:49;3.77;;;0.30;;
40847;SDS011;26570;50.962;5.340;2023-03-13T10:41:08;2.40;;;0.30;;
40847;SDS011;26570;50.962;5.340;2023-03-13T10:44:22;1.03;;;0.30;;
40847;SDS011;26570;50.962;5.340;2023-03-13T10:47:18;1.57;;;0.30;;
40847;SDS011;26570;50.962;5.340;2023-03-13T10:50:03;2.33;;;0.20;;
40847;SDS011;26570;50.962;5.340;2023-03-13T10:52:49;0.93;;;0.30;;
40847;SDS011;26570;50.962;5.340;2023-03-13T10:55:35;3.90;;;0.30;;
40847;SDS011;26570;50.962;5.340;2023-03-13T11:01:40;1.33;;;0.30;;
40847;SDS011;26570;50.962;5.340;2023-03-13T11:13:29;1.83;;;0.20;;
40847;SDS011;26570;50.962;5.340;2023-03-13T11:16:22;1.43;;;0.20;;
40847;SDS011;26570;50.962;5.340;2023-03-13T11:28:27;3.50;;;0.40;;
40847;SDS011;26570;50.962;5.340;2023-03-13T11:34:20;3.60;;;0.20;;
40847;SDS011;26570;50.962;5.340;2023-03-13T11:37:12;2.40;;;0.20;;
40847;SDS011;26570;50.962;5.340;2023-03-13T11:46:23;0.80;;;0.10;;
40847;SDS011;26570;50.962;5.340;2023-03-13T11:49:22;2.97;;;0.20;;
40847;SDS011;26570;50.962;5.340;2023-03-13T11:58:21;0.53;;;0.10;;
40847;SDS011;26570;50.962;5.340;2023-03-13T12:01:29;1.37;;;0.10;;
40847;SDS011;26570;50.962;5.340;2023-03-13T12:04:22;1.23;;;0.17;;
40847;SDS011;26570;50.962;5.340;2023-03-13T12:07:52;0.50;;;0.10;;
40847;SDS011;26570;50.962;5.340;2023-03-13T12:14:05;0.40;;;0.10;;
40847;SDS011;26570;50.962;5.340;2023-03-13T12:17:17;1.38;;;0.10;;
40847;SDS011;26570;50.962;5.340;2023-03-13T12:20:24;1.07;;;0.20;;
40847;SDS011;26570;50.962;5.340;2023-03-13T12:45:35;0.60;;;0.13;;
40847;SDS011;26570;50.962;5.340;2023-03-13T12:49:03;0.40;;;0.10;;
40847;SDS011;26570;50.962;5.340;2023-03-13T13:04:45;0.20;;;0.10;;
40847;SDS011;26570;50.962;5.340;2023-03-13T13:07:36;0.23;;;0.10;;
40847;SDS011;26570;50.962;5.340;2023-03-13T13:10:24;0.57;;;0.10;;
40847;SDS011;26570;50.962;5.340;2023-03-13T13:13:15;2.20;;;0.70;;
40847;SDS011;26570;50.962;5.340;2023-03-13T13:16:24;2.35;;;0.20;;
40847;SDS011;26570;50.962;5.340;2023-03-13T13:19:31;1.23;;;0.10;;
40847;SDS011;26570;50.962;5.340;2023-03-13T13:31:45;1.20;;;0.20;;
40847;SDS011;26570;50.962;5.340;2023-03-13T13:35:03;0.60;;;0.20;;
40847;SDS011;26570;50.962;5.340;2023-03-13T13:44:19;2.20;;;0.20;;
40847;SDS011;26570;50.962;5.340;2023-03-13T13:47:21;1.67;;;0.20;;
40847;SDS011;26570;50.962;5.340;2023-03-13T13:50:25;1.13;;;0.30;;
40847;SDS011;26570;50.962;5.340;2023-03-13T13:56:39;1.97;;;0.20;;
40847;SDS011;26570;50.962;5.340;2023-03-13T14:02:37;2.97;;;0.30;;
40847;SDS011;26570;50.962;5.340;2023-03-13T14:05:36;1.93;;;0.10;;
40847;SDS011;26570;50.962;5.340;2023-03-13T14:08:29;3.47;;;0.40;;
40847;SDS011;26570;50.962;5.340;2023-03-13T14:11:24;2.67;;;0.20;;
40847;SDS011;26570;50.962;5.340;2023-03-13T14:14:18;5.33;;;0.30;;
40847;SDS011;26570;50.962;5.340;2023-03-13T14:17:04;1.73;;;0.20;;
40847;SDS011;26570;50.962;5.340;2023-03-13T14:19:53;0.50;;;0.10;;
40847;SDS011;26570;50.962;5.340;2023-03-13T14:22:45;0.90;;;0.10;;
40847;SDS011;26570;50.962;5.340;2023-03-13T14:25:42;2.10;;;0.20;;
40847;SDS011;26570;50.962;5.340;2023-03-13T14:28:30;1.23;;;0.20;;
40847;SDS011;26570;50.962;5.340;2023-03-13T14:31:28;2.93;;;0.30;;
40847;SDS011;26570;50.962;5.340;2023-03-13T14:34:13;4.10;;;0.30;;
40847;SDS011;26570;50.962;5.340;2023-03-13T14:36:59;2.03;;;0.30;;
40847;SDS011;26570;50.962;5.340;2023-03-13T14:39:45;2.23;;;0.20;;
40847;SDS011;26570;50.962;5.340;2023-03-13T14:42:42;1.50;;;0.20;;
40847;SDS011;26570;50.962;5.340;2023-03-13T14:45:31;2.67;;;0.20;;
40847;SDS011;26570;50.962;5.340;2023-03-13T14:48:22;1.53;;;0.30;;
40847;SDS011;26570;50.962;5.340;2023-03-13T14:51:36;3.60;;;0.20;;
40847;SDS011;26570;50.962;5.340;2023-03-13T14:54:25;2.17;;;0.20;;
40847;SDS011;26570;50.962;5.340;2023-03-13T14:57:14;3.77;;;0.30;;
40847;SDS011;26570;50.962;5.340;2023-03-13T15:06:06;2.17;;;0.27;;
40847;SDS011;26570;50.962;5.340;2023-03-13T15:12:11;2.30;;;0.30;;
40847;SDS011;26570;50.962;5.340;2023-03-13T15:14:58;1.77;;;0.20;;
40847;SDS011;26570;50.962;5.340;2023-03-13T15:17:44;6.03;;;0.40;;
40847;SDS011;26570;50.962;5.340;2023-03-13T15:20:30;3.13;;;0.47;;
40847;SDS011;26570;50.962;5.340;2023-03-13T15:23:38;1.63;;;0.20;;
40847;SDS011;26570;50.962;5.340;2023-03-13T15:26:46;2.73;;;0.33;;
40847;SDS011;26570;50.962;5.340;2023-03-13T15:29:31;2.03;;;0.20;;
40847;SDS011;26570;50.962;5.340;2023-03-13T15:35:35;1.63;;;0.50;;
40847;SDS011;26570;50.962;5.340;2023-03-13T15:38:22;3.80;;;0.20;;
40847;SDS011;26570;50.962;5.340;2023-03-13T15:41:09;4.10;;;0.30;;
40847;SDS011;26570;50.962;5.340;2023-03-13T15:43:54;4.83;;;0.40;;
40847;SDS011;26570;50.962;5.340;2023-03-13T15:46:40;1.87;;;0.30;;
40847;SDS011;26570;50.962;5.340;2023-03-13T15:49:26;2.87;;;0.40;;
40847;SDS011;26570;50.962;5.340;2023-03-13T15:52:13;5.07;;;0.50;;
40847;SDS011;26570;50.962;5.340;2023-03-13T15:55:03;3.23;;;0.30;;
40847;SDS011;26570;50.962;5.340;2023-03-13T15:57:53;3.53;;;0.30;;
40847;SDS011;26570;50.962;5.340;2023-03-13T16:00:38;2.97;;;0.30;;
40847;SDS011;26570;50.962;5.340;2023-03-13T16:03:27;3.90;;;0.30;;
40847;SDS011;26570;50.962;5.340;2023-03-13T16:06:17;4.13;;;0.40;;
40847;SDS011;26570;50.962;5.340;2023-03-13T16:09:27;5.05;;;0.30;;
40847;SDS011;26570;50.962;5.340;2023-03-13T16:12:13;3.03;;;0.40;;
40847;SDS011;26570;50.962;5.340;2023-03-13T16:14:58;3.47;;;0.30;;
40847;SDS011;26570;50.962;5.340;2023-03-13T16:18:06;2.77;;;0.30;;
40847;SDS011;26570;50.962;5.340;2023-03-13T16:20:54;3.63;;;0.30;;
40847;SDS011;26570;50.962;5.340;2023-03-13T16:23:40;2.90;;;0.30;;
40847;SDS011;26570;50.962;5.340;2023-03-13T16:26:27;1.97;;;0.30;;
40847;SDS011;26570;50.962;5.340;2023-03-13T16:29:14;5.03;;;0.63;;
40847;SDS011;26570;50.962;5.340;2023-03-13T16:32:03;3.53;;;0.60;;
40847;SDS011;26570;50.962;5.340;2023-03-13T16:34:48;3.60;;;0.50;;
40847;SDS011;26570;50.962;5.340;2023-03-13T16:37:34;3.23;;;0.30;;
40847;SDS011;26570;50.962;5.340;2023-03-13T16:40:27;2.13;;;0.40;;
40847;SDS011;26570;50.962;5.340;2023-03-13T16:43:15;2.93;;;0.30;;
40847;SDS011;26570;50.962;5.340;2023-03-13T16:46:00;3.30;;;0.40;;
40847;SDS011;26570;50.962;5.340;2023-03-13T16:48:46;8.03;;;0.57;;
40847;SDS011;26570;50.962;5.340;2023-03-13T16:51:33;5.77;;;0.60;;
40847;SDS011;26570;50.962;5.340;2023-03-13T16:54:43;5.60;;;0.60;;
40847;SDS011;26570;50.962;5.340;2023-03-13T16:57:58;4.23;;;0.40;;
40847;SDS011;26570;50.962;5.340;2023-03-13T17:00:51;4.80;;;0.50;;
40847;SDS011;26570;50.962;5.340;2023-03-13T17:03:36;3.90;;;0.40;;
40847;SDS011;26570;50.962;5.340;2023-03-13T17:06:26;9.93;;;0.80;;
40847;SDS011;26570;50.962;5.340;2023-03-13T17:12:01;4.97;;;0.70;;
40847;SDS011;26570;50.962;5.340;2023-03-13T17:14:48;11.00;;;2.20;;
40847;SDS011;26570;50.962;5.340;2023-03-13T17:17:33;6.33;;;1.33;;
40847;SDS011;26570;50.962;5.340;2023-03-13T17:20:21;6.67;;;0.80;;
40847;SDS011;26570;50.962;5.340;2023-03-13T17:23:09;5.03;;;0.60;;
40847;SDS011;26570;50.962;5.340;2023-03-13T17:25:54;3.43;;;0.70;;
40847;SDS011;26570;50.962;5.340;2023-03-13T17:28:48;6.17;;;0.60;;
40847;SDS011;26570;50.962;5.340;2023-03-13T17:31:57;8.83;;;0.60;;
40847;SDS011;26570;50.962;5.340;2023-03-13T17:34:42;8.27;;;0.97;;
40847;SDS011;26570;50.962;5.340;2023-03-13T17:37:28;6.50;;;0.90;;
40847;SDS011;26570;50.962;5.340;2023-03-13T17:43:33;5.87;;;0.90;;
40847;SDS011;26570;50.962;5.340;2023-03-13T17:46:22;3.53;;;0.83;;
40847;SDS011;26570;50.962;5.340;2023-03-13T17:49:15;7.93;;;0.80;;
40847;SDS011;26570;50.962;5.340;2023-03-13T17:52:01;9.90;;;2.80;;
40847;SDS011;26570;50.962;5.340;2023-03-13T17:54:46;9.80;;;2.00;;
40847;SDS011;26570;50.962;5.340;2023-03-13T17:57:32;5.60;;;1.00;;
40847;SDS011;26570;50.962;5.340;2023-03-13T18:00:19;5.07;;;0.63;;
40847;SDS011;26570;50.962;5.340;2023-03-13T18:03:05;7.73;;;0.50;;
40847;SDS011;26570;50.962;5.340;2023-03-13T18:05:51;9.67;;;0.60;;
40847;SDS011;26570;50.962;5.340;2023-03-13T18:08:39;3.23;;;0.50;;
40847;SDS011;26570;50.962;5.340;2023-03-13T18:11:24;5.67;;;0.50;;
40847;SDS011;26570;50.962;5.340;2023-03-13T18:14:11;10.47;;;0.53;;
40847;SDS011;26570;50.962;5.340;2023-03-13T18:16:56;6.93;;;0.60;;
40847;SDS011;26570;50.962;5.340;2023-03-13T18:20:06;6.00;;;0.57;;
40847;SDS011;26570;50.962;5.340;2023-03-13T18:22:58;4.82;;;0.50;;
40847;SDS011;26570;50.962;5.340;2023-03-13T18:25:43;4.87;;;0.50;;
40847;SDS011;26570;50.962;5.340;2023-03-13T18:28:29;5.33;;;0.60;;
40847;SDS011;26570;50.962;5.340;2023-03-13T18:31:14;6.87;;;0.80;;
40847;SDS011;26570;50.962;5.340;2023-03-13T18:34:02;9.10;;;0.80;;
40847;SDS011;26570;50.962;5.340;2023-03-13T18:36:48;7.63;;;0.97;;
40847;SDS011;26570;50.962;5.340;2023-03-13T18:39:33;10.30;;;1.40;;
40847;SDS011;26570;50.962;5.340;2023-03-13T18:42:41;8.23;;;0.87;;
40847;SDS011;26570;50.962;5.340;2023-03-13T18:45:26;7.53;;;0.70;;
40847;SDS011;26570;50.962;5.340;2023-03-13T18:48:35;7.77;;;0.93;;
40847;SDS011;26570;50.962;5.340;2023-03-13T18:51:21;7.40;;;0.80;;
40847;SDS011;26570;50.962;5.340;2023-03-13T18:54:09;9.20;;;0.90;;
40847;SDS011;26570;50.962;5.340;2023-03-13T18:56:54;8.27;;;1.07;;
40847;SDS011;26570;50.962;5.340;2023-03-13T18:59:40;6.93;;;1.00;;
40847;SDS011;26570;50.962;5.340;2023-03-13T19:02:26;8.03;;;1.13;;
40847;SDS011;26570;50.962;5.340;2023-03-13T19:05:35;10.23;;;1.27;;
40847;SDS011;26570;50.962;5.340;2023-03-13T19:08:20;8.97;;;1.67;;
40847;SDS011;26570;50.962;5.340;2023-03-13T19:11:29;4.50;;;1.27;;
40847;SDS011;26570;50.962;5.340;2023-03-13T19:14:38;8.87;;;1.70;;
40847;SDS011;26570;50.962;5.340;2023-03-13T19:17:26;13.00;;;1.63;;
40847;SDS011;26570;50.962;5.340;2023-03-13T19:20:14;12.27;;;2.70;;
40847;SDS011;26570;50.962;5.340;2023-03-13T19:23:02;13.90;;;2.47;;
40847;SDS011;26570;50.962;5.340;2023-03-13T19:25:48;13.60;;;1.57;;
40847;SDS011;26570;50.962;5.340;2023-03-13T19:28:35;8.73;;;1.50;;
40847;SDS011;26570;50.962;5.340;2023-03-13T19:31:21;6.30;;;0.67;;
40847;SDS011;26570;50.962;5.340;2023-03-13T19:34:07;5.23;;;0.77;;
40847;SDS011;26570;50.962;5.340;2023-03-13T19:36:53;8.97;;;1.13;;
40847;SDS011;26570;50.962;5.340;2023-03-13T19:40:01;5.80;;;0.60;;
40847;SDS011;26570;50.962;5.340;2023-03-13T19:42:47;5.33;;;0.60;;
40847;SDS011;26570;50.962;5.340;2023-03-13T19:45:55;7.07;;;0.70;;
40847;SDS011;26570;50.962;5.340;2023-03-13T19:48:40;5.90;;;0.60;;
40847;SDS011;26570;50.962;5.340;2023-03-13T19:51:26;6.73;;;0.70;;
40847;SDS011;26570;50.962;5.340;2023-03-13T19:54:12;4.73;;;0.57;;
40847;SDS011;26570;50.962;5.340;2023-03-13T19:56:58;5.97;;;0.53;;
40847;SDS011;26570;50.962;5.340;2023-03-13T19:59:44;6.00;;;0.60;;
40847;SDS011;26570;50.962;5.340;2023-03-13T20:02:29;5.23;;;0.60;;
40847;SDS011;26570;50.962;5.340;2023-03-13T20:05:15;10.90;;;0.70;;
40847;SDS011;26570;50.962;5.340;2023-03-13T20:08:04;6.37;;;0.57;;
40847;SDS011;26570;50.962;5.340;2023-03-13T20:10:49;9.20;;;0.60;;
40847;SDS011;26570;50.962;5.340;2023-03-13T20:13:34;7.73;;;0.90;;
40847;SDS011;26570;50.962;5.340;2023-03-13T20:16:45;6.33;;;0.60;;
40847;SDS011;26570;50.962;5.340;2023-03-13T20:19:31;5.60;;;0.57;;
40847;SDS011;26570;50.962;5.340;2023-03-13T20:22:17;9.10;;;0.70;;
40847;SDS011;26570;50.962;5.340;2023-03-13T20:25:03;8.20;;;0.60;;